sensor_id;sensor_type;location;lat;lon;timestamp;P1;durP1;ratioP1;P2;durP2;ratioP2
71600;SDS011;59446;52.192;4.628;2023-01-29T00:00:01;2.35;;;1.20;;
71600;SDS011;59446;52.192;4.628;2023-01-29T00:02:33;3.87;;;1.37;;
71600;SDS011;59446;52.192;4.628;2023-01-29T00:05:00;3.67;;;1.50;;
71600;SDS011;59446;52.192;4.628;2023-01-29T00:07:25;2.17;;;1.10;;
71600;SDS011;59446;52.192;4.628;2023-01-29T00:09:50;2.87;;;1.27;;
71600;SDS011;59446;52.192;4.628;2023-01-29T00:12:16;2.80;;;1.47;;
71600;SDS011;59446;52.192;4.628;2023-01-29T00:14:41;1.83;;;1.00;;
71600;SDS011;59446;52.192;4.628;2023-01-29T00:17:07;3.40;;;1.50;;
71600;SDS011;59446;52.192;4.628;2023-01-29T00:19:32;2.75;;;1.20;;
71600;SDS011;59446;52.192;4.628;2023-01-29T00:21:58;4.03;;;1.60;;
71600;SDS011;59446;52.192;4.628;2023-01-29T00:24:23;3.33;;;1.40;;
71600;SDS011;59446;52.192;4.628;2023-01-29T00:26:49;2.33;;;1.00;;
71600;SDS011;59446;52.192;4.628;2023-01-29T00:29:14;3.23;;;1.20;;
71600;SDS011;59446;52.192;4.628;2023-01-29T00:31:42;2.73;;;1.20;;
71600;SDS011;59446;52.192;4.628;2023-01-29T00:34:08;2.00;;;0.98;;
71600;SDS011;59446;52.192;4.628;2023-01-29T00:36:34;2.97;;;1.30;;
71600;SDS011;59446;52.192;4.628;2023-01-29T00:38:59;2.23;;;1.00;;
71600;SDS011;59446;52.192;4.628;2023-01-29T00:41:30;2.55;;;1.08;;
71600;SDS011;59446;52.192;4.628;2023-01-29T00:44:15;2.27;;;1.10;;
71600;SDS011;59446;52.192;4.628;2023-01-29T00:47:00;2.42;;;1.10;;
71600;SDS011;59446;52.192;4.628;2023-01-29T00:49:25;2.30;;;1.17;;
71600;SDS011;59446;52.192;4.628;2023-01-29T00:51:51;2.67;;;1.47;;
71600;SDS011;59446;52.192;4.628;2023-01-29T00:54:36;1.83;;;1.10;;
71600;SDS011;59446;52.192;4.628;2023-01-29T00:57:01;2.05;;;1.20;;
71600;SDS011;59446;52.192;4.628;2023-01-29T00:59:28;3.20;;;1.27;;
71600;SDS011;59446;52.192;4.628;2023-01-29T01:01:53;3.20;;;1.30;;
71600;SDS011;59446;52.192;4.628;2023-01-29T01:04:37;1.95;;;1.00;;
71600;SDS011;59446;52.192;4.628;2023-01-29T01:07:03;1.97;;;1.00;;
71600;SDS011;59446;52.192;4.628;2023-01-29T01:09:28;2.33;;;1.03;;
71600;SDS011;59446;52.192;4.628;2023-01-29T01:12:12;1.75;;;1.00;;
71600;SDS011;59446;52.192;4.628;2023-01-29T01:14:38;1.53;;;0.93;;
71600;SDS011;59446;52.192;4.628;2023-01-29T01:17:07;2.13;;;1.00;;
71600;SDS011;59446;52.192;4.628;2023-01-29T01:19:32;2.57;;;1.40;;
71600;SDS011;59446;52.192;4.628;2023-01-29T01:21:58;2.15;;;1.05;;
71600;SDS011;59446;52.192;4.628;2023-01-29T01:24:23;1.33;;;0.83;;
71600;SDS011;59446;52.192;4.628;2023-01-29T01:26:48;1.50;;;0.90;;
71600;SDS011;59446;52.192;4.628;2023-01-29T01:29:14;1.30;;;0.97;;
71600;SDS011;59446;52.192;4.628;2023-01-29T01:31:39;1.00;;;0.70;;
71600;SDS011;59446;52.192;4.628;2023-01-29T01:34:04;1.73;;;0.77;;
71600;SDS011;59446;52.192;4.628;2023-01-29T01:36:30;2.07;;;0.90;;
71600;SDS011;59446;52.192;4.628;2023-01-29T01:38:56;1.83;;;1.03;;
71600;SDS011;59446;52.192;4.628;2023-01-29T01:41:22;3.00;;;1.33;;
71600;SDS011;59446;52.192;4.628;2023-01-29T01:43:59;3.15;;;0.90;;
71600;SDS011;59446;52.192;4.628;2023-01-29T01:46:33;1.40;;;0.80;;
71600;SDS011;59446;52.192;4.628;2023-01-29T01:51:33;1.30;;;0.88;;
71600;SDS011;59446;52.192;4.628;2023-01-29T01:56:44;2.00;;;1.00;;
71600;SDS011;59446;52.192;4.628;2023-01-29T01:59:16;2.28;;;1.08;;
71600;SDS011;59446;52.192;4.628;2023-01-29T02:01:43;1.27;;;0.85;;
71600;SDS011;59446;52.192;4.628;2023-01-29T02:04:16;1.95;;;0.90;;
71600;SDS011;59446;52.192;4.628;2023-01-29T02:07:03;2.13;;;1.00;;
71600;SDS011;59446;52.192;4.628;2023-01-29T02:09:51;1.20;;;0.70;;
71600;SDS011;59446;52.192;4.628;2023-01-29T02:12:20;1.85;;;1.00;;
71600;SDS011;59446;52.192;4.628;2023-01-29T02:14:47;1.73;;;0.87;;
71600;SDS011;59446;52.192;4.628;2023-01-29T02:17:13;1.77;;;0.90;;
71600;SDS011;59446;52.192;4.628;2023-01-29T02:30:33;1.83;;;0.77;;
71600;SDS011;59446;52.192;4.628;2023-01-29T02:38:49;2.17;;;0.90;;
71600;SDS011;59446;52.192;4.628;2023-01-29T02:47:21;0.87;;;0.63;;
71600;SDS011;59446;52.192;4.628;2023-01-29T02:50:03;2.50;;;1.00;;
71600;SDS011;59446;52.192;4.628;2023-01-29T02:52:38;1.90;;;0.88;;
71600;SDS011;59446;52.192;4.628;2023-01-29T02:55:20;1.27;;;0.70;;
71600;SDS011;59446;52.192;4.628;2023-01-29T02:57:51;1.27;;;0.80;;
71600;SDS011;59446;52.192;4.628;2023-01-29T03:00:23;2.60;;;1.05;;
71600;SDS011;59446;52.192;4.628;2023-01-29T03:03:05;2.08;;;1.08;;
71600;SDS011;59446;52.192;4.628;2023-01-29T03:06:05;3.57;;;1.03;;
71600;SDS011;59446;52.192;4.628;2023-01-29T03:08:40;1.52;;;0.75;;
71600;SDS011;59446;52.192;4.628;2023-01-29T03:11:10;2.00;;;0.77;;
71600;SDS011;59446;52.192;4.628;2023-01-29T03:16:31;1.58;;;1.00;;
71600;SDS011;59446;52.192;4.628;2023-01-29T03:19:05;1.02;;;0.60;;
71600;SDS011;59446;52.192;4.628;2023-01-29T03:21:42;1.80;;;0.82;;
71600;SDS011;59446;52.192;4.628;2023-01-29T03:24:16;1.47;;;0.80;;
71600;SDS011;59446;52.192;4.628;2023-01-29T03:27:03;2.00;;;0.95;;
71600;SDS011;59446;52.192;4.628;2023-01-29T03:29:53;1.02;;;0.57;;
71600;SDS011;59446;52.192;4.628;2023-01-29T03:32:39;1.00;;;0.57;;
71600;SDS011;59446;52.192;4.628;2023-01-29T03:35:06;0.98;;;0.77;;
71600;SDS011;59446;52.192;4.628;2023-01-29T03:37:35;2.28;;;0.82;;
71600;SDS011;59446;52.192;4.628;2023-01-29T03:40:10;1.30;;;0.80;;
71600;SDS011;59446;52.192;4.628;2023-01-29T03:45:31;1.30;;;0.85;;
71600;SDS011;59446;52.192;4.628;2023-01-29T03:48:18;2.22;;;1.17;;
71600;SDS011;59446;52.192;4.628;2023-01-29T03:51:00;1.50;;;0.80;;
71600;SDS011;59446;52.192;4.628;2023-01-29T03:56:25;1.45;;;0.85;;
71600;SDS011;59446;52.192;4.628;2023-01-29T03:59:13;0.97;;;0.70;;
71600;SDS011;59446;52.192;4.628;2023-01-29T04:01:55;1.20;;;0.65;;
71600;SDS011;59446;52.192;4.628;2023-01-29T04:04:28;1.75;;;0.90;;
71600;SDS011;59446;52.192;4.628;2023-01-29T04:06:59;1.03;;;0.67;;
71600;SDS011;59446;52.192;4.628;2023-01-29T04:09:35;1.98;;;1.00;;
71600;SDS011;59446;52.192;4.628;2023-01-29T04:12:09;2.47;;;1.38;;
71600;SDS011;59446;52.192;4.628;2023-01-29T04:14:38;2.28;;;1.08;;
71600;SDS011;59446;52.192;4.628;2023-01-29T04:17:22;1.27;;;0.90;;
71600;SDS011;59446;52.192;4.628;2023-01-29T04:19:53;2.35;;;0.88;;
71600;SDS011;59446;52.192;4.628;2023-01-29T04:22:21;1.20;;;0.70;;
71600;SDS011;59446;52.192;4.628;2023-01-29T04:24:59;1.23;;;0.82;;
71600;SDS011;59446;52.192;4.628;2023-01-29T04:33:43;2.47;;;0.95;;
71600;SDS011;59446;52.192;4.628;2023-01-29T04:36:37;0.70;;;0.60;;
71600;SDS011;59446;52.192;4.628;2023-01-29T04:50:19;1.20;;;0.70;;
71600;SDS011;59446;52.192;4.628;2023-01-29T04:55:42;1.15;;;0.90;;
71600;SDS011;59446;52.192;4.628;2023-01-29T05:00:57;1.85;;;0.80;;
71600;SDS011;59446;52.192;4.628;2023-01-29T05:03:24;1.55;;;0.70;;
71600;SDS011;59446;52.192;4.628;2023-01-29T05:05:51;1.45;;;0.80;;
71600;SDS011;59446;52.192;4.628;2023-01-29T05:08:20;1.23;;;0.70;;
71600;SDS011;59446;52.192;4.628;2023-01-29T05:10:48;1.50;;;0.75;;
71600;SDS011;59446;52.192;4.628;2023-01-29T05:13:16;0.90;;;0.70;;
71600;SDS011;59446;52.192;4.628;2023-01-29T05:15:44;0.80;;;0.70;;
71600;SDS011;59446;52.192;4.628;2023-01-29T05:18:13;1.10;;;0.60;;
71600;SDS011;59446;52.192;4.628;2023-01-29T05:20:39;1.23;;;0.80;;
71600;SDS011;59446;52.192;4.628;2023-01-29T05:23:25;2.55;;;0.77;;
71600;SDS011;59446;52.192;4.628;2023-01-29T05:25:50;1.48;;;0.73;;
71600;SDS011;59446;52.192;4.628;2023-01-29T05:28:16;1.83;;;0.80;;
71600;SDS011;59446;52.192;4.628;2023-01-29T05:30:46;1.42;;;0.80;;
71600;SDS011;59446;52.192;4.628;2023-01-29T05:33:23;1.20;;;0.82;;
71600;SDS011;59446;52.192;4.628;2023-01-29T05:35:50;1.63;;;0.80;;
71600;SDS011;59446;52.192;4.628;2023-01-29T05:38:16;1.67;;;0.70;;
71600;SDS011;59446;52.192;4.628;2023-01-29T05:40:43;1.40;;;0.70;;
71600;SDS011;59446;52.192;4.628;2023-01-29T05:43:16;1.57;;;0.73;;
71600;SDS011;59446;52.192;4.628;2023-01-29T05:45:43;1.00;;;0.80;;
71600;SDS011;59446;52.192;4.628;2023-01-29T05:48:19;1.08;;;0.80;;
71600;SDS011;59446;52.192;4.628;2023-01-29T05:50:44;1.33;;;0.80;;
71600;SDS011;59446;52.192;4.628;2023-01-29T05:53:10;1.60;;;0.60;;
71600;SDS011;59446;52.192;4.628;2023-01-29T05:55:35;0.93;;;0.80;;
71600;SDS011;59446;52.192;4.628;2023-01-29T05:58:01;1.15;;;0.60;;
71600;SDS011;59446;52.192;4.628;2023-01-29T06:00:26;1.53;;;0.60;;
71600;SDS011;59446;52.192;4.628;2023-01-29T06:02:52;1.10;;;0.67;;
71600;SDS011;59446;52.192;4.628;2023-01-29T06:05:17;3.60;;;0.70;;
71600;SDS011;59446;52.192;4.628;2023-01-29T06:07:42;1.63;;;0.70;;
71600;SDS011;59446;52.192;4.628;2023-01-29T06:10:10;1.33;;;0.77;;
71600;SDS011;59446;52.192;4.628;2023-01-29T06:12:40;0.88;;;0.60;;
71600;SDS011;59446;52.192;4.628;2023-01-29T06:15:06;0.93;;;0.70;;
71600;SDS011;59446;52.192;4.628;2023-01-29T06:17:32;1.83;;;0.70;;
71600;SDS011;59446;52.192;4.628;2023-01-29T06:19:57;2.23;;;0.80;;
71600;SDS011;59446;52.192;4.628;2023-01-29T06:22:22;1.73;;;0.80;;
71600;SDS011;59446;52.192;4.628;2023-01-29T06:24:48;0.93;;;0.60;;
71600;SDS011;59446;52.192;4.628;2023-01-29T06:27:13;1.33;;;0.77;;
71600;SDS011;59446;52.192;4.628;2023-01-29T06:29:38;2.10;;;0.73;;
71600;SDS011;59446;52.192;4.628;2023-01-29T06:32:04;1.13;;;0.80;;
71600;SDS011;59446;52.192;4.628;2023-01-29T06:34:29;1.37;;;0.60;;
71600;SDS011;59446;52.192;4.628;2023-01-29T06:36:55;0.90;;;0.67;;
71600;SDS011;59446;52.192;4.628;2023-01-29T06:39:20;1.43;;;0.67;;
71600;SDS011;59446;52.192;4.628;2023-01-29T06:41:45;0.80;;;0.70;;
71600;SDS011;59446;52.192;4.628;2023-01-29T06:44:11;0.90;;;0.67;;
71600;SDS011;59446;52.192;4.628;2023-01-29T06:46:36;1.57;;;0.90;;
71600;SDS011;59446;52.192;4.628;2023-01-29T06:49:02;0.90;;;0.60;;
71600;SDS011;59446;52.192;4.628;2023-01-29T06:51:27;0.88;;;0.65;;
71600;SDS011;59446;52.192;4.628;2023-01-29T06:53:53;1.10;;;0.63;;
71600;SDS011;59446;52.192;4.628;2023-01-29T06:56:20;1.85;;;0.80;;
71600;SDS011;59446;52.192;4.628;2023-01-29T06:58:45;1.03;;;0.60;;
71600;SDS011;59446;52.192;4.628;2023-01-29T07:01:11;1.00;;;0.75;;
71600;SDS011;59446;52.192;4.628;2023-01-29T07:03:37;0.97;;;0.70;;
71600;SDS011;59446;52.192;4.628;2023-01-29T07:06:03;1.23;;;0.70;;
71600;SDS011;59446;52.192;4.628;2023-01-29T07:08:29;0.70;;;0.60;;
71600;SDS011;59446;52.192;4.628;2023-01-29T07:11:00;3.15;;;0.65;;
71600;SDS011;59446;52.192;4.628;2023-01-29T07:13:27;1.20;;;0.70;;
71600;SDS011;59446;52.192;4.628;2023-01-29T07:15:53;2.25;;;0.70;;
71600;SDS011;59446;52.192;4.628;2023-01-29T07:18:22;1.08;;;0.70;;
71600;SDS011;59446;52.192;4.628;2023-01-29T07:20:47;0.83;;;0.60;;
71600;SDS011;59446;52.192;4.628;2023-01-29T07:23:12;1.10;;;0.50;;
71600;SDS011;59446;52.192;4.628;2023-01-29T07:25:39;0.60;;;0.50;;
71600;SDS011;59446;52.192;4.628;2023-01-29T07:28:05;4.30;;;0.80;;
71600;SDS011;59446;52.192;4.628;2023-01-29T07:30:31;1.52;;;0.80;;
71600;SDS011;59446;52.192;4.628;2023-01-29T07:33:06;1.17;;;0.60;;
71600;SDS011;59446;52.192;4.628;2023-01-29T07:35:36;1.20;;;0.60;;
71600;SDS011;59446;52.192;4.628;2023-01-29T07:38:03;0.80;;;0.60;;
71600;SDS011;59446;52.192;4.628;2023-01-29T07:40:29;1.40;;;0.75;;
71600;SDS011;59446;52.192;4.628;2023-01-29T07:43:01;1.00;;;0.80;;
71600;SDS011;59446;52.192;4.628;2023-01-29T07:45:28;0.98;;;0.73;;
71600;SDS011;59446;52.192;4.628;2023-01-29T07:47:54;1.13;;;0.60;;
71600;SDS011;59446;52.192;4.628;2023-01-29T07:50:21;1.10;;;0.68;;
71600;SDS011;59446;52.192;4.628;2023-01-29T07:52:47;0.70;;;0.50;;
71600;SDS011;59446;52.192;4.628;2023-01-29T07:55:13;0.60;;;0.60;;
71600;SDS011;59446;52.192;4.628;2023-01-29T07:57:38;0.40;;;0.40;;
71600;SDS011;59446;52.192;4.628;2023-01-29T08:00:04;0.53;;;0.50;;
71600;SDS011;59446;52.192;4.628;2023-01-29T08:02:29;0.85;;;0.70;;
71600;SDS011;59446;52.192;4.628;2023-01-29T08:04:55;1.13;;;0.67;;
71600;SDS011;59446;52.192;4.628;2023-01-29T08:07:20;1.00;;;0.70;;
71600;SDS011;59446;52.192;4.628;2023-01-29T08:09:45;0.93;;;0.60;;
71600;SDS011;59446;52.192;4.628;2023-01-29T08:12:11;1.30;;;0.75;;
71600;SDS011;59446;52.192;4.628;2023-01-29T08:14:36;1.30;;;0.57;;
71600;SDS011;59446;52.192;4.628;2023-01-29T08:17:01;0.97;;;0.53;;
71600;SDS011;59446;52.192;4.628;2023-01-29T08:19:27;1.37;;;0.87;;
71600;SDS011;59446;52.192;4.628;2023-01-29T08:21:52;1.77;;;0.80;;
71600;SDS011;59446;52.192;4.628;2023-01-29T08:24:17;1.40;;;0.80;;
71600;SDS011;59446;52.192;4.628;2023-01-29T08:26:43;1.23;;;0.70;;
71600;SDS011;59446;52.192;4.628;2023-01-29T08:29:09;2.03;;;0.90;;
71600;SDS011;59446;52.192;4.628;2023-01-29T08:31:35;1.27;;;0.68;;
71600;SDS011;59446;52.192;4.628;2023-01-29T08:34:01;1.40;;;0.70;;
71600;SDS011;59446;52.192;4.628;2023-01-29T08:36:26;1.75;;;0.70;;
71600;SDS011;59446;52.192;4.628;2023-01-29T08:38:51;2.03;;;1.10;;
71600;SDS011;59446;52.192;4.628;2023-01-29T08:41:17;1.20;;;0.70;;
71600;SDS011;59446;52.192;4.628;2023-01-29T08:43:42;0.87;;;0.67;;
71600;SDS011;59446;52.192;4.628;2023-01-29T08:46:07;1.23;;;0.70;;
71600;SDS011;59446;52.192;4.628;2023-01-29T08:48:33;2.67;;;0.97;;
71600;SDS011;59446;52.192;4.628;2023-01-29T08:50:59;2.95;;;1.30;;
71600;SDS011;59446;52.192;4.628;2023-01-29T08:53:26;2.58;;;1.23;;
71600;SDS011;59446;52.192;4.628;2023-01-29T08:55:52;2.10;;;1.20;;
71600;SDS011;59446;52.192;4.628;2023-01-29T08:58:17;2.53;;;1.10;;
71600;SDS011;59446;52.192;4.628;2023-01-29T09:00:43;3.33;;;1.30;;
71600;SDS011;59446;52.192;4.628;2023-01-29T09:03:09;3.53;;;1.30;;
71600;SDS011;59446;52.192;4.628;2023-01-29T09:05:35;3.10;;;1.50;;
71600;SDS011;59446;52.192;4.628;2023-01-29T09:08:01;3.35;;;1.30;;
71600;SDS011;59446;52.192;4.628;2023-01-29T09:10:27;2.47;;;1.00;;
71600;SDS011;59446;52.192;4.628;2023-01-29T09:12:53;2.85;;;1.38;;
71600;SDS011;59446;52.192;4.628;2023-01-29T09:15:18;2.83;;;1.30;;
71600;SDS011;59446;52.192;4.628;2023-01-29T09:17:43;3.07;;;1.30;;
71600;SDS011;59446;52.192;4.628;2023-01-29T09:20:09;2.67;;;1.20;;
71600;SDS011;59446;52.192;4.628;2023-01-29T09:22:35;3.72;;;1.33;;
71600;SDS011;59446;52.192;4.628;2023-01-29T09:25:00;2.27;;;1.00;;
71600;SDS011;59446;52.192;4.628;2023-01-29T09:27:26;2.30;;;1.10;;
71600;SDS011;59446;52.192;4.628;2023-01-29T09:29:52;2.13;;;1.07;;
71600;SDS011;59446;52.192;4.628;2023-01-29T09:32:17;1.67;;;1.00;;
71600;SDS011;59446;52.192;4.628;2023-01-29T09:34:42;2.00;;;1.07;;
71600;SDS011;59446;52.192;4.628;2023-01-29T09:37:08;1.63;;;0.85;;
71600;SDS011;59446;52.192;4.628;2023-01-29T09:39:33;1.23;;;0.80;;
71600;SDS011;59446;52.192;4.628;2023-01-29T09:47:33;0.97;;;0.67;;
71600;SDS011;59446;52.192;4.628;2023-01-29T09:50:02;1.92;;;0.70;;
71600;SDS011;59446;52.192;4.628;2023-01-29T09:52:40;2.00;;;0.80;;
71600;SDS011;59446;52.192;4.628;2023-01-29T09:57:47;1.90;;;0.70;;
71600;SDS011;59446;52.192;4.628;2023-01-29T10:00:17;2.00;;;0.82;;
71600;SDS011;59446;52.192;4.628;2023-01-29T10:08:46;2.13;;;0.77;;
71600;SDS011;59446;52.192;4.628;2023-01-29T10:20:25;1.33;;;0.60;;
71600;SDS011;59446;52.192;4.628;2023-01-29T10:25:23;15.03;;;1.10;;
71600;SDS011;59446;52.192;4.628;2023-01-29T10:27:53;1.65;;;0.95;;
71600;SDS011;59446;52.192;4.628;2023-01-29T10:32:57;1.33;;;0.70;;
71600;SDS011;59446;52.192;4.628;2023-01-29T10:35:38;2.13;;;0.90;;
71600;SDS011;59446;52.192;4.628;2023-01-29T10:41:11;1.87;;;0.90;;
71600;SDS011;59446;52.192;4.628;2023-01-29T10:44:16;3.25;;;1.35;;
71600;SDS011;59446;52.192;4.628;2023-01-29T10:46:51;3.20;;;1.60;;
71600;SDS011;59446;52.192;4.628;2023-01-29T10:52:38;3.07;;;1.30;;
71600;SDS011;59446;52.192;4.628;2023-01-29T11:01:33;4.50;;;1.60;;
71600;SDS011;59446;52.192;4.628;2023-01-29T11:04:02;3.50;;;1.30;;
71600;SDS011;59446;52.192;4.628;2023-01-29T11:09:05;2.28;;;1.10;;
71600;SDS011;59446;52.192;4.628;2023-01-29T11:12:02;1.85;;;0.98;;
71600;SDS011;59446;52.192;4.628;2023-01-29T11:14:44;3.10;;;1.60;;
71600;SDS011;59446;52.192;4.628;2023-01-29T11:17:16;3.40;;;1.50;;
71600;SDS011;59446;52.192;4.628;2023-01-29T11:19:47;3.63;;;1.50;;
71600;SDS011;59446;52.192;4.628;2023-01-29T11:22:19;4.13;;;1.80;;
71600;SDS011;59446;52.192;4.628;2023-01-29T11:27:44;3.95;;;1.75;;
71600;SDS011;59446;52.192;4.628;2023-01-29T11:30:18;4.87;;;1.70;;
71600;SDS011;59446;52.192;4.628;2023-01-29T11:33:38;3.80;;;2.08;;
71600;SDS011;59446;52.192;4.628;2023-01-29T11:35:48;3.45;;;1.52;;
71600;SDS011;59446;52.192;4.628;2023-01-29T11:38:23;3.22;;;1.70;;
71600;SDS011;59446;52.192;4.628;2023-01-29T11:40:50;5.37;;;1.57;;
71600;SDS011;59446;52.192;4.628;2023-01-29T11:45:52;3.72;;;1.70;;
71600;SDS011;59446;52.192;4.628;2023-01-29T11:48:21;3.13;;;1.73;;
71600;SDS011;59446;52.192;4.628;2023-01-29T11:50:51;2.72;;;1.45;;
71600;SDS011;59446;52.192;4.628;2023-01-29T11:56:20;3.73;;;1.40;;
71600;SDS011;59446;52.192;4.628;2023-01-29T11:58:50;4.93;;;1.80;;
71600;SDS011;59446;52.192;4.628;2023-01-29T12:01:28;5.38;;;2.00;;
71600;SDS011;59446;52.192;4.628;2023-01-29T12:03:56;5.65;;;2.10;;
71600;SDS011;59446;52.192;4.628;2023-01-29T12:06:22;3.33;;;1.70;;
71600;SDS011;59446;52.192;4.628;2023-01-29T12:08:56;3.25;;;1.90;;
71600;SDS011;59446;52.192;4.628;2023-01-29T12:11:29;3.53;;;1.57;;
71600;SDS011;59446;52.192;4.628;2023-01-29T12:13:57;3.33;;;1.48;;
71600;SDS011;59446;52.192;4.628;2023-01-29T12:24:35;4.40;;;1.90;;
71600;SDS011;59446;52.192;4.628;2023-01-29T12:27:16;3.80;;;1.73;;
71600;SDS011;59446;52.192;4.628;2023-01-29T12:29:53;2.53;;;1.33;;
71600;SDS011;59446;52.192;4.628;2023-01-29T12:35:27;3.75;;;1.73;;
71600;SDS011;59446;52.192;4.628;2023-01-29T12:38:09;3.30;;;1.77;;
71600;SDS011;59446;52.192;4.628;2023-01-29T12:40:43;3.42;;;1.48;;
71600;SDS011;59446;52.192;4.628;2023-01-29T12:43:17;2.85;;;1.50;;
71600;SDS011;59446;52.192;4.628;2023-01-29T12:45:48;3.63;;;1.70;;
71600;SDS011;59446;52.192;4.628;2023-01-29T12:51:14;3.65;;;1.45;;
71600;SDS011;59446;52.192;4.628;2023-01-29T12:53:54;4.82;;;1.67;;
71600;SDS011;59446;52.192;4.628;2023-01-29T12:56:34;4.37;;;1.50;;
71600;SDS011;59446;52.192;4.628;2023-01-29T12:59:08;3.95;;;1.60;;
71600;SDS011;59446;52.192;4.628;2023-01-29T13:01:49;6.85;;;1.80;;
71600;SDS011;59446;52.192;4.628;2023-01-29T13:04:28;3.57;;;1.73;;
71600;SDS011;59446;52.192;4.628;2023-01-29T13:07:10;3.22;;;1.42;;
71600;SDS011;59446;52.192;4.628;2023-01-29T13:09:40;4.78;;;1.60;;
71600;SDS011;59446;52.192;4.628;2023-01-29T13:12:13;4.40;;;1.53;;
71600;SDS011;59446;52.192;4.628;2023-01-29T13:14:42;4.40;;;1.55;;
71600;SDS011;59446;52.192;4.628;2023-01-29T13:20:25;4.35;;;1.45;;
71600;SDS011;59446;52.192;4.628;2023-01-29T13:23:12;2.97;;;1.50;;
71600;SDS011;59446;52.192;4.628;2023-01-29T13:25:42;3.25;;;1.63;;
71600;SDS011;59446;52.192;4.628;2023-01-29T13:28:15;3.47;;;1.60;;
71600;SDS011;59446;52.192;4.628;2023-01-29T13:30:43;4.20;;;1.90;;
71600;SDS011;59446;52.192;4.628;2023-01-29T13:33:14;3.40;;;1.70;;
71600;SDS011;59446;52.192;4.628;2023-01-29T13:35:47;3.45;;;1.58;;
71600;SDS011;59446;52.192;4.628;2023-01-29T13:38:31;3.20;;;1.40;;
71600;SDS011;59446;52.192;4.628;2023-01-29T13:41:06;3.27;;;1.63;;
71600;SDS011;59446;52.192;4.628;2023-01-29T13:43:35;3.22;;;1.40;;
71600;SDS011;59446;52.192;4.628;2023-01-29T13:46:09;3.13;;;1.58;;
71600;SDS011;59446;52.192;4.628;2023-01-29T13:48:41;3.47;;;1.50;;
71600;SDS011;59446;52.192;4.628;2023-01-29T13:51:13;2.63;;;1.30;;
71600;SDS011;59446;52.192;4.628;2023-01-29T13:53:50;3.13;;;1.60;;
71600;SDS011;59446;52.192;4.628;2023-01-29T13:59:20;3.73;;;1.40;;
71600;SDS011;59446;52.192;4.628;2023-01-29T14:06:58;3.70;;;1.50;;
71600;SDS011;59446;52.192;4.628;2023-01-29T14:12:25;3.63;;;1.60;;
71600;SDS011;59446;52.192;4.628;2023-01-29T14:17:20;3.63;;;1.50;;
71600;SDS011;59446;52.192;4.628;2023-01-29T14:19:48;4.57;;;1.35;;
71600;SDS011;59446;52.192;4.628;2023-01-29T14:22:25;2.47;;;1.20;;
71600;SDS011;59446;52.192;4.628;2023-01-29T14:24:52;2.90;;;1.30;;
71600;SDS011;59446;52.192;4.628;2023-01-29T14:27:24;3.95;;;1.52;;
71600;SDS011;59446;52.192;4.628;2023-01-29T14:29:50;2.90;;;1.60;;
71600;SDS011;59446;52.192;4.628;2023-01-29T14:32:21;2.00;;;1.33;;
71600;SDS011;59446;52.192;4.628;2023-01-29T14:37:35;3.10;;;1.40;;
71600;SDS011;59446;52.192;4.628;2023-01-29T14:40:12;3.80;;;1.75;;
71600;SDS011;59446;52.192;4.628;2023-01-29T14:45:36;3.43;;;1.60;;
71600;SDS011;59446;52.192;4.628;2023-01-29T14:50:38;4.22;;;1.58;;
71600;SDS011;59446;52.192;4.628;2023-01-29T14:58:27;4.03;;;1.60;;
71600;SDS011;59446;52.192;4.628;2023-01-29T15:00:55;3.65;;;1.50;;
71600;SDS011;59446;52.192;4.628;2023-01-29T15:09:09;2.33;;;1.23;;
71600;SDS011;59446;52.192;4.628;2023-01-29T15:17:36;4.05;;;1.85;;
71600;SDS011;59446;52.192;4.628;2023-01-29T15:22:59;2.87;;;1.23;;
71600;SDS011;59446;52.192;4.628;2023-01-29T15:25:28;3.05;;;1.35;;
71600;SDS011;59446;52.192;4.628;2023-01-29T15:28:15;2.83;;;1.42;;
71600;SDS011;59446;52.192;4.628;2023-01-29T15:30:41;2.80;;;1.50;;
71600;SDS011;59446;52.192;4.628;2023-01-29T15:33:08;2.85;;;1.48;;
71600;SDS011;59446;52.192;4.628;2023-01-29T15:35:36;3.77;;;1.80;;
71600;SDS011;59446;52.192;4.628;2023-01-29T15:38:13;3.13;;;1.50;;
71600;SDS011;59446;52.192;4.628;2023-01-29T15:40:40;4.45;;;1.83;;
71600;SDS011;59446;52.192;4.628;2023-01-29T15:43:25;3.17;;;1.77;;
71600;SDS011;59446;52.192;4.628;2023-01-29T15:45:55;5.22;;;1.85;;
71600;SDS011;59446;52.192;4.628;2023-01-29T15:48:30;4.10;;;1.80;;
71600;SDS011;59446;52.192;4.628;2023-01-29T15:51:01;4.43;;;1.60;;
71600;SDS011;59446;52.192;4.628;2023-01-29T15:53:34;3.42;;;1.65;;
71600;SDS011;59446;52.192;4.628;2023-01-29T15:56:13;2.78;;;1.60;;
71600;SDS011;59446;52.192;4.628;2023-01-29T15:58:42;3.42;;;1.80;;
71600;SDS011;59446;52.192;4.628;2023-01-29T16:01:12;5.40;;;1.97;;
71600;SDS011;59446;52.192;4.628;2023-01-29T16:03:37;4.95;;;2.08;;
71600;SDS011;59446;52.192;4.628;2023-01-29T16:06:04;5.40;;;2.10;;
71600;SDS011;59446;52.192;4.628;2023-01-29T16:08:31;3.90;;;1.73;;
71600;SDS011;59446;52.192;4.628;2023-01-29T16:11:02;3.17;;;1.50;;
71600;SDS011;59446;52.192;4.628;2023-01-29T16:13:30;3.92;;;1.80;;
71600;SDS011;59446;52.192;4.628;2023-01-29T16:18:43;4.30;;;1.70;;
71600;SDS011;59446;52.192;4.628;2023-01-29T16:21:15;5.15;;;1.95;;
71600;SDS011;59446;52.192;4.628;2023-01-29T16:23:59;2.85;;;1.60;;
71600;SDS011;59446;52.192;4.628;2023-01-29T16:26:28;4.57;;;1.83;;
71600;SDS011;59446;52.192;4.628;2023-01-29T16:29:06;3.72;;;1.70;;
71600;SDS011;59446;52.192;4.628;2023-01-29T16:31:34;5.55;;;1.80;;
71600;SDS011;59446;52.192;4.628;2023-01-29T16:34:05;1.93;;;1.23;;
71600;SDS011;59446;52.192;4.628;2023-01-29T16:36:34;5.25;;;1.90;;
71600;SDS011;59446;52.192;4.628;2023-01-29T16:39:00;4.63;;;1.77;;
71600;SDS011;59446;52.192;4.628;2023-01-29T16:46:51;4.20;;;1.75;;
71600;SDS011;59446;52.192;4.628;2023-01-29T16:51:55;4.47;;;1.35;;
71600;SDS011;59446;52.192;4.628;2023-01-29T16:54:40;1.55;;;1.08;;
71600;SDS011;59446;52.192;4.628;2023-01-29T16:57:10;4.43;;;1.57;;
71600;SDS011;59446;52.192;4.628;2023-01-29T16:59:40;3.88;;;1.58;;
71600;SDS011;59446;52.192;4.628;2023-01-29T17:04:58;3.60;;;1.55;;
71600;SDS011;59446;52.192;4.628;2023-01-29T17:07:27;3.60;;;1.60;;
71600;SDS011;59446;52.192;4.628;2023-01-29T17:09:55;6.70;;;1.58;;
71600;SDS011;59446;52.192;4.628;2023-01-29T17:12:24;2.97;;;1.60;;
71600;SDS011;59446;52.192;4.628;2023-01-29T17:14:56;3.27;;;1.60;;
71600;SDS011;59446;52.192;4.628;2023-01-29T17:17:29;3.55;;;1.88;;
71600;SDS011;59446;52.192;4.628;2023-01-29T17:20:12;4.78;;;1.50;;
71600;SDS011;59446;52.192;4.628;2023-01-29T17:22:40;4.03;;;1.53;;
71600;SDS011;59446;52.192;4.628;2023-01-29T17:25:06;5.43;;;1.75;;
71600;SDS011;59446;52.192;4.628;2023-01-29T17:27:31;3.57;;;1.33;;
71600;SDS011;59446;52.192;4.628;2023-01-29T17:29:57;4.00;;;1.97;;
71600;SDS011;59446;52.192;4.628;2023-01-29T17:32:22;4.10;;;1.50;;
71600;SDS011;59446;52.192;4.628;2023-01-29T17:34:49;3.70;;;1.60;;
71600;SDS011;59446;52.192;4.628;2023-01-29T17:37:14;3.13;;;1.40;;
71600;SDS011;59446;52.192;4.628;2023-01-29T17:39:43;3.60;;;1.50;;
71600;SDS011;59446;52.192;4.628;2023-01-29T17:42:14;3.43;;;1.70;;
71600;SDS011;59446;52.192;4.628;2023-01-29T17:44:40;4.07;;;1.70;;
71600;SDS011;59446;52.192;4.628;2023-01-29T17:47:09;3.00;;;1.53;;
71600;SDS011;59446;52.192;4.628;2023-01-29T17:49:37;3.42;;;1.40;;
71600;SDS011;59446;52.192;4.628;2023-01-29T17:52:03;4.53;;;1.77;;
71600;SDS011;59446;52.192;4.628;2023-01-29T17:54:28;4.18;;;1.30;;
71600;SDS011;59446;52.192;4.628;2023-01-29T17:56:54;3.47;;;1.60;;
71600;SDS011;59446;52.192;4.628;2023-01-29T17:59:23;3.20;;;1.40;;
71600;SDS011;59446;52.192;4.628;2023-01-29T18:01:52;4.70;;;2.03;;
71600;SDS011;59446;52.192;4.628;2023-01-29T18:04:18;4.43;;;1.97;;
71600;SDS011;59446;52.192;4.628;2023-01-29T18:06:45;4.80;;;1.88;;
71600;SDS011;59446;52.192;4.628;2023-01-29T18:09:12;4.63;;;1.95;;